Time;durP1;ratioP1;P1;durP2;ratioP2;P2;SDS_P1;SDS_P2;PMS_P1;PMS_P2;Temp;Humidity;BMP_temperature;BMP_pressure;BME280_temperature;BME280_humidity;BME280_pressure;Samples;Min_cycle;Max_cycle;Signal;HPM_P1;HPM_P2
2022/01/26 00:07:04;;;;;;;94.30;51.60;;;;;;;0.88;79.62;103165.66;10499740;28;20030;-80
2022/01/26 00:12:05;;;;;;;102.53;53.90;;;;;;;0.87;79.91;103158.66;10494671;28;20395;-80
2022/01/26 00:17:05;;;;;;;99.07;53.65;;;;;;;0.85;80.82;103172.13;10522114;28;20028;-80
2022/01/26 00:22:06;;;;;;;90.50;49.67;;;;;;;0.88;80.79;103172.50;10478476;28;20052;-80
2022/01/26 00:27:35;;;;;;;112.82;55.63;;;;;;;0.87;80.51;103170.66;10466912;28;20120;-80
2022/01/26 00:43:20;;;;;;;96.47;55.58;;;;;;;0.91;80.82;103161.63;10482450;28;20044;-80
2022/01/26 00:48:21;;;;;;;111.25;60.13;;;;;;;0.91;80.30;103164.19;10460069;28;20028;-79
2022/01/26 00:53:26;;;;;;;107.90;55.00;;;;;;;0.95;79.51;103153.53;10475541;28;20064;-80
2022/01/26 00:58:26;;;;;;;123.72;60.00;;;;;;;0.87;79.32;103161.25;10477389;28;20056;-80
2022/01/26 01:03:28;;;;;;;118.53;57.28;;;;;;;0.87;79.75;103157.75;10492691;28;20048;-79
2022/01/26 01:08:29;;;;;;;102.43;58.75;;;;;;;0.87;79.35;103157.75;10479120;28;20028;-80
2022/01/26 01:13:34;;;;;;;111.78;56.72;;;;;;;0.83;79.43;103155.53;10482564;28;20166;-80
2022/01/26 01:33:56;;;;;;;107.35;57.38;;;;;;;0.80;80.02;103148.31;10489293;28;20059;-80
2022/01/26 01:38:57;;;;;;;108.50;66.00;;;;;;;0.82;80.23;103148.53;10475442;28;20507;-80
2022/01/26 01:43:58;;;;;;;106.05;63.00;;;;;;;0.81;80.24;103151.84;10462699;28;20083;-80
2022/01/26 01:48:58;;;;;;;128.13;66.03;;;;;;;0.77;79.62;103144.47;10461859;28;20076;-80
2022/01/26 01:53:59;;;;;;;120.63;68.68;;;;;;;0.79;80.07;103143.91;10486184;28;20071;-80
2022/01/26 01:59:00;;;;;;;134.55;71.28;;;;;;;0.92;79.90;103140.25;10510884;28;20035;-80
2022/01/26 02:04:00;;;;;;;150.48;74.47;;;;;;;0.80;80.41;103127.69;10437754;28;20029;-80
2022/01/26 02:09:01;;;;;;;132.50;71.90;;;;;;;0.75;80.36;103136.53;10505017;28;20091;-80
2022/01/26 02:14:06;;;;;;;137.50;70.18;;;;;;;0.71;80.12;103129.13;10488752;28;20031;-80
2022/01/26 02:56:21;;;;;;;146.48;77.75;;;;;;;0.44;80.99;103104.38;10492907;28;20036;-79
2022/01/26 03:12:40;;;;;;;168.55;80.25;;;;;;;0.41;80.08;103080.78;10458027;28;20056;-79
2022/01/26 03:18:20;;;;;;;150.85;73.55;;;;;;;0.41;79.97;103080.78;10483044;28;20029;-79
2022/01/26 03:34:03;;;;;;;154.73;78.55;;;;;;;0.39;79.96;103064.22;10474107;28;20040;-79
2022/01/26 03:39:09;;;;;;;163.50;78.63;;;;;;;0.37;80.45;103056.31;10495483;28;20127;-80
2022/01/26 03:44:10;;;;;;;159.38;84.07;;;;;;;0.39;80.79;103054.84;10494795;28;20040;-80
2022/01/26 03:49:11;;;;;;;155.15;81.50;;;;;;;0.37;81.17;103055.38;10486371;28;20076;-80
2022/01/26 03:54:11;;;;;;;174.23;81.35;;;;;;;0.36;80.99;103062.22;10468690;28;20060;-80
2022/01/26 03:59:12;;;;;;;169.10;82.78;;;;;;;0.40;80.34;103073.81;10468509;28;20067;-79
2022/01/26 04:04:13;;;;;;;157.15;82.85;;;;;;;0.40;81.13;103079.88;10454154;28;20116;-80
2022/01/26 04:09:15;;;;;;;169.57;82.15;;;;;;;0.40;80.87;103085.03;10488461;28;20123;-80
2022/01/26 04:14:19;;;;;;;163.82;82.57;;;;;;;0.38;81.50;103093.28;10472825;28;20028;-80
2022/01/26 04:19:20;;;;;;;155.90;82.07;;;;;;;0.38;81.47;103090.72;10458713;28;20033;-79
2022/01/26 04:29:30;;;;;;;154.25;79.47;;;;;;;0.45;80.69;103082.13;10447639;28;20028;-79
2022/01/26 04:34:32;;;;;;;148.25;79.68;;;;;;;0.40;81.49;103084.09;10461451;28;20020;-79
2022/01/26 04:39:40;;;;;;;151.45;77.85;;;;;;;0.42;81.46;103092.94;10458256;28;20472;-79
2022/01/26 04:45:01;;;;;;;153.45;76.32;;;;;;;0.52;81.22;103087.28;10481582;28;20072;-79
2022/01/26 04:50:02;;;;;;;141.70;68.77;;;;;;;0.49;80.64;103069.78;10494819;28;20047;-79
2022/01/26 04:55:03;;;;;;;136.67;73.60;;;;;;;0.42;80.97;103085.22;10499781;28;20032;-80
2022/01/26 05:00:08;;;;;;;142.07;70.13;;;;;;;0.38;80.89;103098.44;10468387;28;20465;-80
2022/01/26 05:05:12;;;;;;;133.45;68.22;;;;;;;0.39;80.87;103114.13;10477472;28;20029;-79
2022/01/26 05:10:13;;;;;;;141.80;74.32;;;;;;;0.41;80.68;103115.22;10490850;28;20025;-79
2022/01/26 05:15:13;;;;;;;156.80;77.53;;;;;;;0.40;80.55;103115.03;10492019;28;20033;-79
2022/01/26 05:20:14;;;;;;;151.20;76.72;;;;;;;0.34;81.31;103117.78;10454397;28;20095;-79
2022/01/26 05:25:15;;;;;;;148.65;72.20;;;;;;;0.32;81.31;103115.72;10492210;28;20474;-79
2022/01/26 05:30:15;;;;;;;144.65;70.43;;;;;;;0.39;82.40;103118.34;10464404;28;20084;-80
2022/01/26 05:35:16;;;;;;;150.00;74.10;;;;;;;0.32;82.11;103108.94;10480360;28;20028;-80
2022/01/26 05:40:16;;;;;;;155.27;75.80;;;;;;;0.27;81.98;103108.34;10497347;28;20537;-79
2022/01/26 05:45:27;;;;;;;151.55;75.25;;;;;;;0.28;81.78;103109.28;10509870;28;20111;-80
2022/01/26 05:50:29;;;;;;;136.65;70.93;;;;;;;0.35;81.80;103092.91;10465632;28;20080;-78
2022/01/26 05:55:32;;;;;;;143.13;74.13;;;;;;;0.45;81.47;103071.81;10479463;28;20051;-78
2022/01/26 06:00:32;;;;;;;143.82;74.13;;;;;;;0.42;81.31;103052.66;10488110;28;20035;-78
2022/01/26 06:05:33;;;;;;;147.98;73.53;;;;;;;0.34;81.49;103073.03;10496124;28;20031;-78
2022/01/26 06:10:34;;;;;;;142.15;72.22;;;;;;;0.36;81.44;103056.13;10488749;28;20071;-78
2022/01/26 06:15:37;;;;;;;144.30;75.95;;;;;;;0.32;82.06;103066.78;10483682;28;20036;-80
2022/01/26 06:20:38;;;;;;;157.88;75.68;;;;;;;0.32;82.42;103065.13;10463159;28;20499;-81
2022/01/26 06:25:38;;;;;;;162.40;76.50;;;;;;;0.34;82.12;103052.44;10490831;28;20024;-81
2022/01/26 06:30:39;;;;;;;133.82;68.55;;;;;;;0.35;82.31;103065.50;10481722;28;20059;-81
2022/01/26 06:35:40;;;;;;;151.30;80.57;;;;;;;0.33;82.23;103071.19;10462361;28;20028;-80
2022/01/26 06:40:40;;;;;;;135.05;71.93;;;;;;;0.35;81.94;103072.31;10465668;28;20058;-79
2022/01/26 06:45:49;;;;;;;159.15;76.63;;;;;;;0.43;82.28;103069.03;10493540;28;20474;-78
2022/01/26 06:50:50;;;;;;;138.68;73.90;;;;;;;0.49;81.42;103059.47;10493697;28;20063;-78
2022/01/26 06:55:50;;;;;;;133.20;73.07;;;;;;;0.47;81.35;103032.59;10484576;28;20109;-78
2022/01/26 07:00:51;;;;;;;145.25;70.95;;;;;;;0.39;82.37;103041.97;10490273;28;20039;-79
2022/01/26 07:05:51;;;;;;;157.95;72.03;;;;;;;0.40;82.39;103055.75;10484886;28;20461;-79
2022/01/26 07:10:53;;;;;;;150.20;84.28;;;;;;;0.38;82.54;103071.06;10453990;28;20033;-77
2022/01/26 07:26:16;;;;;;;163.35;76.50;;;;;;;0.50;82.89;103068.16;10490746;28;20036;-78
2022/01/26 07:31:17;;;;;;;151.30;75.15;;;;;;;0.47;83.20;103070.34;10493142;28;20495;-78
2022/01/26 07:36:17;;;;;;;168.75;78.65;;;;;;;0.56;82.99;103076.63;10494571;28;20052;-78
2022/01/26 07:41:18;;;;;;;154.88;79.97;;;;;;;0.54;83.02;103054.91;10476468;28;20072;-78
2022/01/26 07:46:19;;;;;;;163.38;80.63;;;;;;;0.61;82.46;103069.44;10476949;28;20089;-78
2022/01/26 07:51:19;;;;;;;147.75;74.22;;;;;;;0.56;83.39;103095.59;10494455;28;20067;-78
2022/01/26 07:56:20;;;;;;;160.10;75.47;;;;;;;0.58;82.88;103065.78;10492161;28;20430;-78
2022/01/26 08:01:23;;;;;;;159.65;72.22;;;;;;;0.58;82.98;103101.84;10488963;28;20032;-78
2022/01/26 08:06:24;;;;;;;165.57;73.57;;;;;;;0.58;83.08;103073.50;10487950;28;20029;-77
2022/01/26 08:11:24;;;;;;;164.75;76.88;;;;;;;0.63;83.29;103073.13;10488920;28;20131;-77
2022/01/26 08:16:25;;;;;;;164.57;80.25;;;;;;;0.60;83.83;103055.66;10485835;28;20036;-78
2022/01/26 08:21:26;;;;;;;163.90;81.07;;;;;;;0.66;82.69;103071.88;10500925;28;20457;-77
2022/01/26 08:26:37;;;;;;;163.13;84.47;;;;;;;0.64;82.71;103095.59;10526957;28;20118;-77
2022/01/26 08:31:37;;;;;;;180.05;84.78;;;;;;;0.62;82.89;103117.69;10542366;28;20046;-78
2022/01/26 08:36:38;;;;;;;166.85;76.80;;;;;;;0.58;82.99;103129.28;10523013;28;20494;-79
2022/01/26 08:41:38;;;;;;;160.77;74.57;;;;;;;0.63;82.56;103150.47;10495054;28;20060;-77
2022/01/26 08:46:39;;;;;;;174.15;77.78;;;;;;;0.63;83.45;103125.63;10499323;28;20043;-77
2022/01/26 08:51:39;;;;;;;180.13;83.90;;;;;;;0.63;83.37;103122.13;10530434;28;20051;-77
2022/01/26 08:56:40;;;;;;;174.98;88.28;;;;;;;0.61;84.38;103126.16;10526962;28;20528;-77
2022/01/26 09:01:41;;;;;;;173.88;83.45;;;;;;;0.62;84.54;103130.56;10499400;28;20033;-77
2022/01/26 09:07:01;;;;;;;177.68;80.90;;;;;;;0.59;85.12;103131.13;10499640;28;20029;-77
2022/01/26 09:12:07;;;;;;;175.05;82.68;;;;;;;0.62;84.93;103125.41;10497714;28;20036;-77
2022/01/26 09:17:08;;;;;;;165.63;80.60;;;;;;;0.63;85.69;103142.72;10498441;28;20030;-78
2022/01/26 09:22:11;;;;;;;151.23;77.45;;;;;;;0.66;85.21;103153.44;10521920;28;20067;-77
2022/01/26 09:27:14;;;;;;;178.85;81.68;;;;;;;0.66;85.35;103145.69;10523177;28;20024;-78
2022/01/26 09:32:15;;;;;;;173.60;79.35;;;;;;;0.54;85.58;103158.91;10524611;28;20035;-76
2022/01/26 09:37:17;;;;;;;173.32;80.35;;;;;;;0.60;86.12;103152.66;10536905;28;20024;-76
2022/01/26 09:42:17;;;;;;;132.57;62.53;;;;;;;0.62;86.12;103141.81;10499891;28;20087;-74
2022/01/26 09:47:20;;;;;;;189.55;86.00;;;;;;;0.57;85.87;103153.22;10482661;28;20055;-77
2022/01/26 09:52:28;;;;;;;163.55;82.18;;;;;;;0.60;85.91;103163.91;10511678;28;20028;-75
2022/01/26 09:57:32;;;;;;;182.10;82.33;;;;;;;0.62;86.93;103161.50;10492373;28;20159;-74
2022/01/26 10:02:33;;;;;;;181.18;87.72;;;;;;;0.64;86.39;103144.56;10475855;28;20028;-75
2022/01/26 10:07:53;;;;;;;176.75;82.00;;;;;;;0.62;87.15;103133.16;10473256;28;20396;-75
2022/01/26 10:18:16;;;;;;;174.07;72.85;;;;;;;0.67;87.36;103117.53;10478984;28;20373;-75
2022/01/26 10:23:26;;;;;;;160.80;75.68;;;;;;;0.76;87.21;103107.44;10472800;28;20074;-75
2022/01/26 10:28:46;;;;;;;;;;;;;;;0.83;86.65;103103.97;10472996;28;20036;-75
2022/01/26 10:34:04;;;;;;;155.35;65.85;;;;;;;0.87;86.84;103119.09;10486932;28;19916;-76
2022/01/26 10:39:09;;;;;;;149.05;65.88;;;;;;;0.98;87.45;103122.97;10494712;28;20067;-77
2022/01/26 10:44:09;;;;;;;130.70;64.47;;;;;;;1.02;86.65;103115.81;10505459;28;20052;-77
2022/01/26 10:49:30;;;;;;;148.60;68.20;;;;;;;0.98;87.17;103095.53;10506801;28;20037;-76
2022/01/26 10:54:37;;;;;;;131.68;61.20;;;;;;;0.97;86.60;103123.69;10495867;28;20111;-77
2022/01/26 10:59:40;;;;;;;143.05;67.60;;;;;;;0.89;86.63;103130.50;10485912;28;20024;-77
2022/01/26 11:04:41;;;;;;;125.38;57.90;;;;;;;0.95;86.91;103127.75;10521609;28;20527;-77
2022/01/26 11:09:47;;;;;;;125.67;63.63;;;;;;;0.98;86.44;103144.53;10517359;28;20036;-77
2022/01/26 11:14:51;;;;;;;123.68;56.08;;;;;;;1.00;86.75;103136.97;10496602;28;20039;-78
2022/01/26 11:19:53;;;;;;;133.27;60.65;;;;;;;1.04;86.71;103141.75;10511156;28;20028;-77
2022/01/26 11:24:54;;;;;;;119.50;57.43;;;;;;;1.10;86.53;103133.88;10487861;28;20032;-79
2022/01/26 11:29:58;;;;;;;123.03;59.10;;;;;;;1.12;86.26;103117.84;10496459;28;20290;-78
2022/01/26 11:35:00;;;;;;;114.93;55.05;;;;;;;1.15;86.16;103125.03;10466850;28;20040;-78
2022/01/26 11:45:34;;;;;;;122.43;60.83;;;;;;;1.24;86.01;103130.38;10489149;28;20044;-78
2022/01/26 11:50:42;;;;;;;139.40;58.65;;;;;;;1.35;86.02;103119.72;10459733;28;20037;-79
2022/01/26 11:55:48;;;;;;;145.75;58.30;;;;;;;1.49;85.71;103117.88;10485383;28;20518;-79
2022/01/26 12:01:13;;;;;;;125.07;57.03;;;;;;;1.54;85.09;103103.84;10511943;28;20029;-80
2022/01/26 12:06:24;;;;;;;118.10;60.22;;;;;;;1.57;85.10;103099.06;10486043;28;20456;-78
2022/01/26 12:11:29;;;;;;;118.80;56.28;;;;;;;1.67;84.92;103103.69;10495393;28;20032;-78
2022/01/26 12:16:33;;;;;;;118.13;50.78;;;;;;;1.65;84.37;103087.09;10473326;28;20048;-78
2022/01/26 12:37:51;;;;;;;125.03;58.78;;;;;;;1.57;86.11;103081.00;10456717;28;20021;-80
2022/01/26 12:43:04;;;;;;;116.18;56.08;;;;;;;1.55;86.16;103073.09;10482191;28;20059;-79
2022/01/26 12:48:08;;;;;;;125.13;59.95;;;;;;;1.46;85.43;103090.94;10491734;28;20467;-79
2022/01/26 12:53:08;;;;;;;118.25;58.08;;;;;;;1.38;85.87;103076.22;10524832;28;20063;-77
2022/01/26 12:58:09;;;;;;;123.47;56.35;;;;;;;1.40;86.07;103071.25;10527437;28;20119;-78
2022/01/26 13:03:13;;;;;;;116.95;62.67;;;;;;;1.43;85.94;103075.09;10508194;28;20506;-79
2022/01/26 13:08:14;;;;;;;108.25;53.95;;;;;;;1.40;86.48;103073.81;10499316;28;20094;-79
2022/01/26 13:13:19;;;;;;;115.95;56.83;;;;;;;1.44;86.71;103064.03;10497936;28;20056;-80
2022/01/26 13:24:10;;;;;;;104.75;49.60;;;;;;;1.56;85.08;103068.81;10472675;28;20119;-79
2022/01/26 13:50:56;;;;;;;101.85;48.67;;;;;;;1.88;83.22;103022.66;10498646;28;20064;-79
2022/01/26 13:55:56;;;;;;;83.82;45.22;;;;;;;1.83;83.56;103022.13;10479712;28;20588;-80
2022/01/26 14:01:00;;;;;;;94.63;49.22;;;;;;;1.95;83.63;103022.63;10510387;28;20028;-81
2022/01/26 14:06:01;;;;;;;88.30;45.40;;;;;;;2.04;82.52;103021.13;10487252;28;20047;-82
2022/01/26 14:11:02;;;;;;;105.00;52.40;;;;;;;2.00;82.68;103008.59;10502285;28;20391;-81
2022/01/26 14:16:04;;;;;;;164.20;49.30;;;;;;;1.88;83.35;103002.94;10496801;28;20170;-82
2022/01/26 14:26:13;;;;;;;91.63;46.25;;;;;;;1.83;83.06;102990.22;10497269;28;20002;-84
2022/01/26 15:34:37;;;;;;;80.72;42.85;;;;;;;1.61;83.54;102998.03;10491702;28;20044;-79
2022/01/26 15:48:43;;;;;;;80.53;43.50;;;;;;;1.51;84.34;103015.75;10488152;28;20672;-78
2022/01/26 15:51:09;;;;;;;81.03;48.72;;;;;;;1.50;83.96;103022.56;10508174;28;20503;-79
2022/01/26 16:06:25;;;;;;;97.70;47.60;;;;;;;1.44;83.76;102996.94;10479176;28;20124;-77
2022/01/26 18:33:10;;;;;;;78.72;42.03;;;;;;;0.97;84.77;102941.53;10497893;28;20425;-80
2022/01/26 18:54:08;;;;;;;78.10;36.47;;;;;;;0.96;84.18;102923.28;10495245;28;20036;-80
2022/01/26 18:59:10;;;;;;;77.83;38.77;;;;;;;0.97;84.25;102917.41;10493123;28;20036;-81
2022/01/26 19:04:10;;;;;;;67.32;34.35;;;;;;;0.96;84.19;102928.44;10494748;28;20043;-78
2022/01/26 19:09:11;;;;;;;75.43;35.30;;;;;;;1.02;83.69;102935.28;10494923;28;20112;-80
2022/01/26 19:14:11;;;;;;;72.00;34.20;;;;;;;0.96;84.03;102931.03;10495432;28;20514;-81
2022/01/26 19:24:45;;;;;;;62.55;34.67;;;;;;;0.91;84.24;102927.91;10494664;28;20376;-82
2022/01/26 19:30:01;;;;;;;63.08;35.20;;;;;;;0.96;84.54;102923.28;10493999;28;20032;-79
2022/01/26 19:50:58;;;;;;;66.47;33.92;;;;;;;0.98;84.28;102906.34;10526557;28;20491;-78
2022/01/26 19:55:59;;;;;;;68.55;32.13;;;;;;;0.98;84.11;102899.53;10499460;28;20032;-78
2022/01/26 20:00:59;;;;;;;65.53;35.42;;;;;;;1.03;84.17;102915.53;10517383;28;20063;-78
2022/01/26 20:06:00;;;;;;;68.68;32.75;;;;;;;1.01;84.06;102914.44;10520150;28;20062;-78
2022/01/26 20:11:06;;;;;;;65.70;33.53;;;;;;;1.04;83.59;102893.28;10532085;28;20782;-78
2022/01/26 20:16:11;;;;;;;69.88;32.65;;;;;;;1.07;83.92;102899.69;10516074;28;20035;-78
2022/01/26 20:21:12;;;;;;;63.08;33.28;;;;;;;1.02;84.20;102905.97;10503427;28;20032;-78
2022/01/26 20:26:12;;;;;;;60.90;32.95;;;;;;;1.04;84.00;102899.34;10510578;28;20056;-75
2022/01/26 20:31:21;;;;;;;80.10;36.42;;;;;;;1.08;83.92;102891.22;10524345;28;20031;-76
2022/01/26 20:36:28;;;;;;;76.10;32.22;;;;;;;1.03;83.62;102879.44;10537608;28;20032;-76
2022/01/26 20:41:28;;;;;;;67.68;34.85;;;;;;;1.00;83.94;102868.75;10500842;28;20064;-76
2022/01/26 20:46:29;;;;;;;75.47;39.08;;;;;;;1.01;84.48;102865.44;10502815;28;20032;-76
2022/01/26 20:51:30;;;;;;;79.68;34.85;;;;;;;1.13;83.44;102859.16;10532429;28;20487;-76
2022/01/26 20:56:30;;;;;;;64.13;36.47;;;;;;;1.08;84.00;102854.22;10504290;28;20020;-77
2022/01/26 21:01:31;;;;;;;69.88;38.08;;;;;;;1.08;84.14;102839.63;10526557;28;20056;-76
2022/01/26 21:06:32;;;;;;;80.93;37.95;;;;;;;1.10;83.83;102822.69;10499996;28;20111;-76
2022/01/26 21:11:33;;;;;;;78.18;36.58;;;;;;;1.11;84.11;102809.06;10521382;28;20027;-77
2022/01/26 21:16:34;;;;;;;78.07;38.15;;;;;;;1.08;83.75;102802.63;10524115;28;20032;-76
2022/01/26 21:21:34;;;;;;;77.22;37.05;;;;;;;1.13;83.94;102801.50;10511653;28;20215;-75
2022/01/26 21:26:35;;;;;;;74.22;41.78;;;;;;;1.09;84.41;102796.72;10509891;28;20482;-76
2022/01/26 21:31:36;;;;;;;72.13;43.35;;;;;;;1.15;83.99;102797.44;10509212;28;20042;-75
2022/01/26 21:36:36;;;;;;;76.00;38.53;;;;;;;1.20;83.91;102787.66;10498631;28;20032;-76
2022/01/26 21:41:38;;;;;;;86.47;39.00;;;;;;;1.25;83.87;102787.47;10499566;28;20038;-76
2022/01/26 21:46:40;;;;;;;75.53;38.38;;;;;;;1.26;83.76;102789.31;10499521;28;20033;-76
2022/01/26 21:51:41;;;;;;;81.97;39.42;;;;;;;1.27;83.58;102795.38;10508857;28;20047;-78
2022/01/26 21:56:42;;;;;;;67.60;40.40;;;;;;;1.28;83.50;102792.03;10518105;28;20400;-78
2022/01/26 22:01:43;;;;;;;71.78;41.05;;;;;;;1.32;83.28;102794.22;10512175;28;20067;-77
2022/01/26 22:06:44;;;;;;;76.30;39.63;;;;;;;1.30;83.44;102791.50;10510690;28;20380;-78
2022/01/26 22:11:44;;;;;;;67.75;40.15;;;;;;;1.32;83.13;102791.66;10518108;28;20028;-78
2022/01/26 22:16:45;;;;;;;71.10;41.08;;;;;;;1.36;82.65;102805.84;10500587;28;20074;-78
2022/01/26 22:21:46;;;;;;;64.75;33.42;;;;;;;1.32;83.00;102801.97;10475025;28;20036;-78
2022/01/26 22:26:46;;;;;;;65.68;37.40;;;;;;;1.34;83.55;102813.38;10485231;28;20079;-77
2022/01/26 22:31:47;;;;;;;74.07;37.38;;;;;;;1.28;83.71;102812.69;10510067;28;20032;-77
2022/01/26 22:36:48;;;;;;;83.30;40.25;;;;;;;1.28;83.35;102821.34;10510224;28;20067;-78
2022/01/26 22:41:48;;;;;;;65.45;36.78;;;;;;;1.36;83.26;102821.31;10496394;28;20506;-77
2022/01/26 22:46:49;;;;;;;61.10;34.63;;;;;;;1.33;83.09;102821.88;10499512;28;20055;-78
2022/01/26 22:51:49;;;;;;;58.63;34.20;;;;;;;1.36;82.77;102811.00;10497324;28;20060;-77
2022/01/26 22:56:50;;;;;;;60.40;33.78;;;;;;;1.42;81.98;102812.63;10497418;28;20543;-78
2022/01/26 23:02:41;;;;;;;56.00;31.92;;;;;;;1.43;82.46;102809.31;10496154;28;20052;-78
2022/01/26 23:07:14;;;;;;;61.45;32.33;;;;;;;1.49;81.83;102803.00;10496942;28;20033;-78
2022/01/26 23:12:14;;;;;;;52.95;32.30;;;;;;;1.48;81.75;102793.44;10497612;28;20481;-78
2022/01/26 23:17:15;;;;;;;52.78;25.80;;;;;;;1.48;81.30;102786.63;10496280;28;20112;-78
2022/01/26 23:22:16;;;;;;;46.22;27.48;;;;;;;1.53;80.68;102782.91;10497284;28;20070;-78
2022/01/26 23:27:25;;;;;;;45.63;27.33;;;;;;;1.52;80.37;102780.13;10497116;28;20056;-78
2022/01/26 23:32:53;;;;;;;53.47;31.02;;;;;;;1.50;80.20;102748.06;10508801;28;20054;-77
2022/01/26 23:38:01;;;;;;;48.53;27.75;;;;;;;1.53;80.04;102758.75;10474314;28;20029;-78
